M I D A S
Marine Information and Data Acquisition System
Tripno 2059 of the Zeeleeuw from 2011-03-16 07:51:13 to 2011-03-16 15:12:10
Back to CruiseResearch ActivitiesStationsMapUnderway DataData graphs

EquipmentUnitsComment
TimeDGPSUTC
LatitudeDGPSDM.mWGS84
LongitudeDGPSDM.mWGS84
HeadingGyrodeg 
SOGDGPSknotsSpeed over ground
COGDGPSdegCourse over ground
DepthEcho soundermeters200 kHz
Missing or incorrect values are displayed as -999
Navigation data collected by the RV Zeeleeuw from 2011-03-16 07:52:53 to 2011-03-16 15:19:00
Time Latitude Longitude Heading SOG COG Depth
2011-03-16 07:53:58 51°13.674 2°55.895 107.3 3.7 286 -999
2011-03-16 07:54:58 51°13.689 2°55.808 107.5 2.6 288 4.9
2011-03-16 07:55:57 51°13.701 2°55.766 127.5 2.3 305 -999
2011-03-16 07:56:59 51°13.744 2°55.699 147 4 324 -999
2011-03-16 07:57:59 51°13.816 2°55.643 162 5.3 340 -999
2011-03-16 07:58:58 51°13.898 2°55.617 187.4 4.7 1 -999
2011-03-16 07:59:57 51°13.954 2°55.641 215.6 2 25 13.1
2011-03-16 08:00:57 51°13.961 2°55.622 271.9 2.1 276 13.1
2011-03-16 08:01:56 51°13.989 2°55.534 304.8 5.4 306 13.1
2011-03-16 08:02:55 51°14.071 2°55.434 332.4 7.3 332 12.8
2011-03-16 08:03:56 51°14.206 2°55.352 339.9 9.2 337 12.7
2011-03-16 08:04:54 51°14.341 2°55.234 329.5 9.9 327 12.9
2011-03-16 08:05:56 51°14.489 2°55.074 328.9 11.1 328 13.2
2011-03-16 08:06:56 51°14.662 2°54.916 325.8 12.6 328 13.4
2011-03-16 08:07:56 51°14.833 2°54.718 319.9 12.9 322 13.2
2011-03-16 08:08:56 51°15.009 2°54.522 323.9 12.9 326 12.2
2011-03-16 08:09:56 51°15.178 2°54.318 320.2 12.7 323 12.2
2011-03-16 08:10:56 51°15.346 2°54.113 321.1 12.8 323 12.5
2011-03-16 08:11:56 51°15.513 2°53.904 319.8 12.8 321 13.2
2011-03-16 08:12:56 51°15.678 2°53.687 318.5 12.7 320 13.4
2011-03-16 08:13:55 51°15.841 2°53.478 318.3 12.8 322 14.2
2011-03-16 08:14:56 51°16.031 2°53.307 330.7 13 332 13.8
2011-03-16 08:15:55 51°16.218 2°53.149 330.3 12.9 333 14.1
2011-03-16 08:16:56 51°16.412 2°52.988 329.7 12.8 333 14.2
2011-03-16 08:17:56 51°16.604 2°52.842 334.9 12.9 338 13.6
2011-03-16 08:18:56 51°16.808 2°52.737 340.1 12.9 343 12.2
2011-03-16 08:19:55 51°17.01 2°52.636 340.4 13 343 12.5
2011-03-16 08:20:55 51°17.217 2°52.538 342.2 13 345 12.4
2011-03-16 08:21:56 51°17.432 2°52.456 349 13.2 352 12.8
2011-03-16 08:22:56 51°17.652 2°52.445 358.7 13.2 1 12.5
2011-03-16 08:23:56 51°17.874 2°52.445 358 13.2 -999 12.9
2011-03-16 08:24:55 51°18.089 2°52.443 357.7 13.2 -999 13
2011-03-16 08:25:56 51°18.311 2°52.439 357.4 13.2 359 13.1
2011-03-16 08:26:56 51°18.532 2°52.45 0.2 13.2 1 13.8
2011-03-16 08:27:56 51°18.752 2°52.46 1 13.2 2 14.6
2011-03-16 08:28:55 51°18.967 2°52.469 0.7 13.3 2 15.1
2011-03-16 08:29:55 51°19.187 2°52.479 0.8 13.3 2 16.4
2011-03-16 08:30:56 51°19.412 2°52.486 359.9 13.3 -999 17.2
2011-03-16 08:31:56 51°19.633 2°52.491 359.9 13.3 1 17.7
2011-03-16 08:32:56 51°19.854 2°52.495 0.7 13.3 1 18.6
2011-03-16 08:33:56 51°20.076 2°52.499 0.3 13.3 1 19
2011-03-16 08:34:56 51°20.298 2°52.5 -999 13.4 -999 18.3
2011-03-16 08:35:55 51°20.516 2°52.502 0.1 13.5 -999 17.9
2011-03-16 08:36:56 51°20.74 2°52.507 0.8 12.6 -999 17.3
2011-03-16 08:37:56 51°20.917 2°52.518 3.2 9.8 5 17.7
2011-03-16 08:38:56 51°21.074 2°52.544 4.6 9.4 6 18.1
2011-03-16 08:39:56 51°21.229 2°52.577 8.7 9.5 11 18.6
2011-03-16 08:40:56 51°21.385 2°52.628 9.8 9.5 11 19.5
2011-03-16 08:41:54 51°21.534 2°52.673 10.5 9.3 12 20.6
2011-03-16 08:42:54 51°21.702 2°52.721 9 12.5 9 22
2011-03-16 08:43:55 51°21.926 2°52.778 9.5 13.7 10 24.6
2011-03-16 08:44:56 51°22.154 2°52.835 9.1 13.6 9 26.4
2011-03-16 08:45:56 51°22.379 2°52.892 9.5 13.7 9 25.6
2011-03-16 08:46:55 51°22.6 2°52.945 9.9 13.7 8 24.7
2011-03-16 08:47:56 51°22.829 2°52.997 9.4 13.6 8 23.2
2011-03-16 08:48:56 51°23.056 2°53.046 9.1 13.8 7 25.1
2011-03-16 08:49:56 51°23.284 2°53.099 9 13.8 7 22.8
2011-03-16 08:50:56 51°23.513 2°53.149 9.7 13.9 9 23.4
2011-03-16 08:51:54 51°23.734 2°53.199 10.3 13.8 9 23.8
2011-03-16 08:52:55 51°23.964 2°53.252 9.1 13.8 8 22.3
2011-03-16 08:53:55 51°24.191 2°53.302 9.5 13.7 8 18.6
2011-03-16 08:54:56 51°24.423 2°53.354 10.1 13.9 8 19.4
2011-03-16 08:55:54 51°24.643 2°53.406 8.9 13.8 7 21.7
2011-03-16 08:56:54 51°24.871 2°53.454 9.8 13.7 8 21.1
2011-03-16 08:57:56 51°25.104 2°53.5 8.5 13.5 5 24.1
2011-03-16 08:58:56 51°25.328 2°53.539 8.3 13.5 5 23.2
2011-03-16 08:59:56 51°25.552 2°53.58 8.8 13.7 6 27
2011-03-16 09:00:55 51°25.774 2°53.618 9.2 13.6 6 29.1
2011-03-16 09:01:56 51°26.006 2°53.661 9.2 13.7 7 32.3
2011-03-16 09:02:56 51°26.232 2°53.701 8.7 13.8 6 33.8
2011-03-16 09:03:56 51°26.461 2°53.742 7.9 13.9 5 34.8
2011-03-16 09:04:55 51°26.687 2°53.763 3 13.7 2 34
2011-03-16 09:05:55 51°26.916 2°53.768 2.6 13.9 1 29.2
2011-03-16 09:06:56 51°27.151 2°53.781 3.2 13.9 2 25.9
2011-03-16 09:07:56 51°27.383 2°53.794 3 13.9 3 26.2
2011-03-16 09:08:56 51°27.614 2°53.832 7.4 14 6 25.7
2011-03-16 09:09:56 51°27.843 2°53.868 7.3 13.7 6 23.2
2011-03-16 09:10:56 51°28.071 2°53.906 7 13.9 6 24.9
2011-03-16 09:11:55 51°28.295 2°53.94 6.8 13.8 5 24.8
2011-03-16 09:12:55 51°28.525 2°53.977 7.6 13.9 5 26.3
2011-03-16 09:13:56 51°28.759 2°54.013 7.3 14 5 27.2
2011-03-16 09:14:55 51°28.987 2°54.044 7.3 14 5 28.6
2011-03-16 09:15:56 51°29.217 2°54.084 7.7 13.5 6 29.4
2011-03-16 09:16:56 51°29.44 2°54.124 8.2 13.5 7 30.9
2011-03-16 09:17:56 51°29.665 2°54.163 7.8 13.6 7 32.6
2011-03-16 09:18:56 51°29.891 2°54.201 7.3 13.6 5 34.1
2011-03-16 09:19:56 51°30.117 2°54.242 7.7 13.7 7 34.1
2011-03-16 09:20:55 51°30.338 2°54.282 7.4 13.6 7 37.1
2011-03-16 09:21:56 51°30.569 2°54.322 7 13.8 6 34.7
2011-03-16 09:22:56 51°30.795 2°54.364 7.4 13.5 7 22.4
2011-03-16 09:23:56 51°31.018 2°54.407 7.4 13.6 7 18.9
2011-03-16 09:24:56 51°31.242 2°54.452 7.3 13.5 7 21.3
2011-03-16 09:25:56 51°31.466 2°54.494 7.3 13.6 7 20.8
2011-03-16 09:26:56 51°31.69 2°54.537 7.7 13.6 7 22.7
2011-03-16 09:27:56 51°31.914 2°54.579 7 13.5 6 24.1
2011-03-16 09:28:56 51°32.138 2°54.622 7.8 13.6 7 23.5
2011-03-16 09:29:54 51°32.353 2°54.663 7.5 13.6 8 22.4
2011-03-16 09:30:55 51°32.58 2°54.709 6.7 13.5 7 25.6
2011-03-16 09:31:56 51°32.803 2°54.799 20.7 13.6 22 26.2
2011-03-16 09:32:56 51°33.012 2°54.944 24.2 13.7 24 26.5
2011-03-16 09:33:56 51°33.213 2°55.108 29.3 12.7 33 25.5
2011-03-16 09:34:56 51°33.34 2°55.346 57.6 10.3 59 28.4
2011-03-16 09:35:56 51°33.363 2°55.563 105.3 7.4 102 28.4
2011-03-16 09:36:54 51°33.302 2°55.739 123.9 8.3 116 25.4
2011-03-16 09:37:56 51°33.238 2°55.942 126.1 8.2 118 28.4
2011-03-16 09:38:56 51°33.183 2°56.069 158 4.2 153 28
2011-03-16 09:39:56 51°33.134 2°56.048 230.4 2.7 235 26.6
2011-03-16 09:40:56 51°33.134 2°55.989 273.2 1.8 291 27.9
2011-03-16 09:41:56 51°33.147 2°55.955 288.2 1.4 313 27.4
2011-03-16 09:42:56 51°33.163 2°55.936 304.2 1.1 340 26.6
2011-03-16 09:43:56 51°33.177 2°55.931 313.8 1 10 26.7
2011-03-16 09:44:55 51°33.194 2°55.929 321.4 1.1 350 27.2
2011-03-16 09:45:54 51°33.211 2°55.927 320.6 1 355 27.1
2011-03-16 09:46:56 51°33.229 2°55.925 320.3 1 353 27.2
2011-03-16 09:47:56 51°33.244 2°55.92 317 0.9 349 28
2011-03-16 09:48:56 51°33.261 2°55.915 316.1 0.9 355 28.5
2011-03-16 09:49:56 51°33.279 2°55.908 309.7 1.5 335 28.4
2011-03-16 09:50:56 51°33.293 2°55.872 266.7 1.6 275 28.3
2011-03-16 09:51:56 51°33.275 2°55.842 207.6 1.8 191 27.9
2011-03-16 09:52:56 51°33.245 2°55.868 150.3 2.3 131 27.2
2011-03-16 09:53:55 51°33.228 2°55.933 110.2 3.1 106 27.7
2011-03-16 09:54:56 51°33.215 2°56.026 116 3.8 105 28.1
2011-03-16 09:55:56 51°33.181 2°56.106 150.2 3.6 139 28.2
2011-03-16 09:56:55 51°33.131 2°56.157 167 3.7 153 28
2011-03-16 09:57:55 51°33.078 2°56.196 163.6 2.9 151 26.3
2011-03-16 09:58:56 51°33.051 2°56.217 179.1 1 155 28.2
2011-03-16 09:59:56 51°33.052 2°56.224 190.2 0.8 17 28.2
2011-03-16 10:00:56 51°33.046 2°56.22 210.6 1.7 208 28.2
2011-03-16 10:01:56 51°33.035 2°56.151 268.7 3.7 276 27.7
2011-03-16 10:02:55 51°33.068 2°56.054 304.1 3.7 313 26.7
2011-03-16 10:03:55 51°33.102 2°56.015 311.6 1.8 326 27.1
2011-03-16 10:04:55 51°33.127 2°56.001 321.3 1.3 347 28.1
2011-03-16 10:05:54 51°33.149 2°55.991 317.3 1.4 339 26.4
2011-03-16 10:06:54 51°33.169 2°55.98 311.1 1.1 332 26.5
2011-03-16 10:07:54 51°33.19 2°55.964 301.6 1.5 326 27.2
2011-03-16 10:08:55 51°33.207 2°55.935 278.9 1.4 300 26.3
2011-03-16 10:09:54 51°33.213 2°55.902 254.3 1.1 274 26.8
2011-03-16 10:10:55 51°33.213 2°55.878 252.7 0.8 280 26.8
2011-03-16 10:11:55 51°33.215 2°55.857 263.1 0.7 282 25.8
2011-03-16 10:12:55 51°33.223 2°55.841 275.2 0.8 322 24.2
2011-03-16 10:13:55 51°33.235 2°55.832 290.6 0.8 345 25.4
2011-03-16 10:14:55 51°33.246 2°55.829 302.1 0.7 -999 26.4
2011-03-16 10:15:55 51°33.256 2°55.83 306.4 0.6 7 27.4
2011-03-16 10:16:54 51°33.265 2°55.833 314.1 0.4 356 27.6
2011-03-16 10:17:55 51°33.272 2°55.838 316.1 0.5 29 27.9
2011-03-16 10:18:54 51°33.276 2°55.843 315.3 0.5 52 27.1
2011-03-16 10:19:55 51°33.278 2°55.852 312.5 0.4 74 28.4
2011-03-16 10:20:54 51°33.279 2°55.863 306.9 0.3 92 28.2
2011-03-16 10:21:55 51°33.279 2°55.877 300.3 0.6 85 28.4
2011-03-16 10:22:54 51°33.28 2°55.891 297 0.5 80 28.3
2011-03-16 10:23:54 51°33.282 2°55.904 295.4 0.5 76 28.9
2011-03-16 10:24:55 51°33.285 2°55.916 296.4 0.6 70 29.2
2011-03-16 10:25:54 51°33.29 2°55.917 288.3 0.4 319 28.6
2011-03-16 10:26:55 51°33.3 2°55.906 285.7 0.9 317 29.3
2011-03-16 10:27:54 51°33.308 2°55.878 266.3 1.5 285 28.2
2011-03-16 10:28:55 51°33.308 2°55.828 258.1 2.1 267 28.6
2011-03-16 10:29:54 51°33.319 2°55.781 279.5 1.8 300 28
2011-03-16 10:30:55 51°33.337 2°55.746 290.9 1.5 312 27.8
2011-03-16 10:31:54 51°33.358 2°55.723 300.3 1.5 333 27.5
2011-03-16 10:32:55 51°33.378 2°55.706 304.2 1.3 336 28
2011-03-16 10:33:54 51°33.406 2°55.687 327.6 2.5 348 29
2011-03-16 10:34:55 51°33.453 2°55.683 3.5 3 9 27.6
2011-03-16 10:35:55 51°33.499 2°55.721 44.1 3.3 42 29.3
2011-03-16 10:36:55 51°33.516 2°55.8 111.1 3.5 105 30
2011-03-16 10:37:55 51°33.47 2°55.863 167.4 4.5 158 30.1
2011-03-16 10:38:55 51°33.386 2°55.936 158 6.3 153 26.9
2011-03-16 10:39:55 51°33.295 2°56.037 150.3 6.7 145 29.7
2011-03-16 10:40:54 51°33.201 2°56.133 158.3 6.8 152 28.6
2011-03-16 10:41:54 51°33.114 2°56.186 188.3 3.8 186 27.3
2011-03-16 10:42:55 51°33.082 2°56.14 246.2 2.2 260 27.2
2011-03-16 10:43:54 51°33.084 2°56.094 264.4 1.5 288 27.6
2011-03-16 10:44:55 51°33.096 2°56.068 284.8 1.3 330 27.6
2011-03-16 10:45:55 51°33.109 2°56.054 295.1 0.8 335 27.7
2011-03-16 10:46:55 51°33.124 2°56.05 309.3 0.9 354 26.7
2011-03-16 10:47:55 51°33.137 2°56.052 319.7 0.8 15 25.5
2011-03-16 10:48:55 51°33.147 2°56.054 319.4 0.5 10 26.4
2011-03-16 10:49:54 51°33.156 2°56.058 318 0.7 31 26.7
2011-03-16 10:50:54 51°33.162 2°56.064 312.4 0.5 31 27.8
2011-03-16 10:51:54 51°33.168 2°56.07 303.4 0.4 28 27.4
2011-03-16 10:52:55 51°33.172 2°56.078 294.8 0.4 47 27.5
2011-03-16 10:53:55 51°33.177 2°56.085 291.5 0.5 355 27.7
2011-03-16 10:54:56 51°33.188 2°56.056 265 1.6 283 27.6
2011-03-16 10:55:54 51°33.188 2°55.984 257.9 3.8 270 26.4
2011-03-16 10:56:54 51°33.188 2°55.87 270.8 4.6 280 26.3
2011-03-16 10:57:56 51°33.208 2°55.786 284.1 2.5 299 28.5
2011-03-16 10:58:56 51°33.231 2°55.745 297.7 1.9 320 28.4
2011-03-16 10:59:56 51°33.258 2°55.715 304.4 2.1 323 28.8
2011-03-16 11:00:54 51°33.283 2°55.689 309.3 1.5 327 28.9
2011-03-16 11:01:54 51°33.304 2°55.681 323 1.1 1 27.4
2011-03-16 11:02:55 51°33.323 2°55.679 324.8 1.7 345 24.1
2011-03-16 11:03:55 51°33.38 2°55.674 8.4 4.5 12 27.7
2011-03-16 11:04:54 51°33.436 2°55.76 78.4 5 73 26.6
2011-03-16 11:05:54 51°33.408 2°55.861 159.6 4.5 149 26.7
2011-03-16 11:06:54 51°33.33 2°55.9 186.9 4.9 184 29
2011-03-16 11:07:54 51°33.252 2°55.854 222.9 5.1 229 26.6
2011-03-16 11:08:55 51°33.215 2°55.736 243.5 4.1 250 28.1
2011-03-16 11:09:55 51°33.212 2°55.647 271.1 3 289 27.4
2011-03-16 11:10:55 51°33.23 2°55.586 283.9 2.4 300 27.9
2011-03-16 11:11:55 51°33.254 2°55.543 295.7 1.9 322 27.1
2011-03-16 11:12:56 51°33.279 2°55.521 310.6 1.5 340 27.8
2011-03-16 11:13:55 51°33.3 2°55.512 323.1 1.1 347 28.3
2011-03-16 11:14:54 51°33.315 2°55.508 325.7 0.7 357 29.1
2011-03-16 11:15:54 51°33.325 2°55.506 320.8 0.5 347 28.9
2011-03-16 11:16:55 51°33.334 2°55.506 315.1 0.4 357 29
2011-03-16 11:17:56 51°33.341 2°55.511 307.6 0.6 7 28.7
2011-03-16 11:18:55 51°33.349 2°55.51 307.4 0.6 16 28.8
2011-03-16 11:19:55 51°33.356 2°55.514 304.9 0.5 28 29.1
2011-03-16 11:20:53 51°33.361 2°55.518 302.7 0.4 27 28.3
2011-03-16 11:21:54 51°33.366 2°55.524 300.6 0.3 34 28.6
2011-03-16 11:22:54 51°33.371 2°55.529 299.3 0.4 34 28.6
2011-03-16 11:23:54 51°33.376 2°55.535 297.6 0.4 32 28.1
2011-03-16 11:24:55 51°33.381 2°55.542 298.1 0.4 44 28.1
2011-03-16 11:25:55 51°33.386 2°55.549 298.2 0.4 35 27
2011-03-16 11:26:56 51°33.392 2°55.556 299.6 0.6 30 26.1
2011-03-16 11:27:54 51°33.396 2°55.562 300.2 0.4 41 27.2
2011-03-16 11:28:54 51°33.4 2°55.568 300 0.4 38 27.4
2011-03-16 11:29:55 51°33.406 2°55.573 301.4 0.5 21 27.8
2011-03-16 11:30:56 51°33.411 2°55.579 302.5 0.4 43 27.3
2011-03-16 11:31:55 51°33.416 2°55.585 302.3 0.4 37 27.5
2011-03-16 11:32:55 51°33.421 2°55.593 301.7 0.6 39 25
2011-03-16 11:33:54 51°33.427 2°55.601 303.1 0.6 37 26.1
2011-03-16 11:34:54 51°33.432 2°55.609 303.8 0.4 44 27
2011-03-16 11:35:55 51°33.437 2°55.616 301.5 0.5 41 28.1
2011-03-16 11:36:55 51°33.441 2°55.623 299.9 0.4 46 28.4
2011-03-16 11:37:56 51°33.446 2°55.63 299.2 0.4 34 28.4
2011-03-16 11:38:54 51°33.451 2°55.635 300 0.5 32 27.9
2011-03-16 11:39:54 51°33.456 2°55.643 300.6 0.5 34 29
2011-03-16 11:40:56 51°33.461 2°55.651 298.9 0.6 40 28.4
2011-03-16 11:41:56 51°33.466 2°55.659 295.8 0.4 47 27.3
2011-03-16 11:42:54 51°33.472 2°55.667 295.5 0.3 38 27.3
2011-03-16 11:43:54 51°33.478 2°55.676 297.6 0.6 41 27
2011-03-16 11:44:56 51°33.483 2°55.686 297.7 0.5 57 28.4
2011-03-16 11:45:56 51°33.488 2°55.696 295.6 0.5 48 28.4
2011-03-16 11:46:55 51°33.495 2°55.705 296.9 0.7 42 28.1
2011-03-16 11:47:54 51°33.502 2°55.715 297.1 0.6 44 28.5
2011-03-16 11:48:54 51°33.508 2°55.725 296.9 0.7 38 27.8
2011-03-16 11:49:55 51°33.516 2°55.733 299.6 0.5 34 25.5
2011-03-16 11:50:55 51°33.522 2°55.743 299.9 0.6 37 26.6
2011-03-16 11:51:54 51°33.531 2°55.75 299.8 0.9 340 28.1
2011-03-16 11:52:54 51°33.554 2°55.709 283.2 3.1 294 28
2011-03-16 11:53:55 51°33.539 2°55.651 207.5 3 206 29
2011-03-16 11:54:55 51°33.44 2°55.69 160.5 8.6 157 28.5
2011-03-16 11:55:55 51°33.297 2°55.806 154.7 10.1 153 27.1
2011-03-16 11:56:54 51°33.148 2°55.915 159.2 10 155 26.4
2011-03-16 11:57:56 51°32.994 2°56.041 151.1 10.3 144 25.9
2011-03-16 11:58:54 51°32.945 2°56.2 95.2 5.1 84 27.2
2011-03-16 11:59:54 51°32.982 2°56.292 37.2 3.6 34 26.8
2011-03-16 12:00:55 51°33.033 2°56.302 326.7 2.7 338 28.2
2011-03-16 12:01:55 51°33.063 2°56.274 300.3 1.8 324 25.3
2011-03-16 12:02:55 51°33.088 2°56.25 307.7 2.8 320 26.6
2011-03-16 12:03:55 51°33.148 2°56.17 312.5 5.8 320 28.3
2011-03-16 12:04:55 51°33.225 2°56.054 308.9 6.6 314 28.3
2011-03-16 12:05:53 51°33.278 2°55.913 275.9 6.2 281 27.8
2011-03-16 12:06:55 51°33.287 2°55.735 266.5 7.2 271 23.8
2011-03-16 12:07:54 51°33.291 2°55.529 267.3 8.2 275 27.7
2011-03-16 12:08:54 51°33.279 2°55.319 244.5 7.8 250 27.3
2011-03-16 12:09:54 51°33.216 2°55.138 232.5 7.7 235 27
2011-03-16 12:10:54 51°33.106 2°55.083 181.3 7.4 175 25
2011-03-16 12:11:55 51°32.976 2°55.104 177.3 7.9 176 26.5
2011-03-16 12:12:56 51°32.868 2°55.169 143.2 5.1 133 25.2
2011-03-16 12:13:55 51°32.836 2°55.258 132.9 3.5 117 22.3
2011-03-16 12:14:54 51°32.808 2°55.326 145.3 3.1 127 23.6
2011-03-16 12:15:54 51°32.765 2°55.378 158.7 3.4 141 23.8
2011-03-16 12:16:54 51°32.722 2°55.446 143.1 3.8 129 24.9
2011-03-16 12:17:56 51°32.686 2°55.484 181 1.9 169 23.4
2011-03-16 12:18:56 51°32.666 2°55.466 219.3 1 237 24.3
2011-03-16 12:19:56 51°32.663 2°55.447 220.7 0.5 246 25.8
2011-03-16 12:20:56 51°32.661 2°55.433 221.5 0.5 267 25.7
2011-03-16 12:21:56 51°32.664 2°55.417 233.8 0.8 293 25.5
2011-03-16 12:22:55 51°32.67 2°55.4 242.6 0.6 307 26.1
2011-03-16 12:23:54 51°32.676 2°55.382 249 1 296 25.5
2011-03-16 12:24:54 51°32.687 2°55.36 275.3 1.5 313 25.4
2011-03-16 12:25:56 51°32.723 2°55.293 298.4 4.7 310 24.1
2011-03-16 12:26:56 51°32.776 2°55.185 297.3 5.1 307 24.3
2011-03-16 12:27:56 51°32.825 2°55.088 301.2 3.9 314 26.1
2011-03-16 12:28:56 51°32.868 2°55.041 315.4 2.6 332 25.6
2011-03-16 12:29:56 51°32.9 2°55.017 320.5 1.9 344 23.5
2011-03-16 12:30:55 51°32.926 2°55.004 329.6 1.5 340 26.7
2011-03-16 12:31:55 51°32.948 2°54.995 328.8 1.3 344 26.1
2011-03-16 12:32:56 51°32.965 2°54.986 326.7 1 340 26.7
2011-03-16 12:33:56 51°32.977 2°54.98 317.3 0.6 346 25.8
2011-03-16 12:34:53 51°32.986 2°54.977 304.6 0.6 336 25.7
2011-03-16 12:35:54 51°32.996 2°54.974 301.1 0.6 357 24.4
2011-03-16 12:36:55 51°33.006 2°54.973 296.2 0.5 345 22.3
2011-03-16 12:37:55 51°33.017 2°54.962 294.5 1.1 333 23.8
2011-03-16 12:38:56 51°33.033 2°54.946 302.7 1.1 336 24.5
2011-03-16 12:39:54 51°33.047 2°54.936 310.4 1 335 25
2011-03-16 12:40:54 51°33.067 2°54.921 327.2 2.2 338 25.5
2011-03-16 12:41:56 51°33.11 2°54.909 1.1 2.3 -999 27.2
2011-03-16 12:42:55 51°33.136 2°54.91 6.2 0.9 2 25.7
2011-03-16 12:43:54 51°33.167 2°54.9 326.4 3 332 26.7
2011-03-16 12:44:54 51°33.186 2°54.831 243 3 252 26.8
2011-03-16 12:45:53 51°33.143 2°54.818 163.2 3.6 153 26.2
2011-03-16 12:46:55 51°33.089 2°54.908 140.8 5.1 130 26.4
2011-03-16 12:47:55 51°33.021 2°54.996 155.3 5.1 147 25.4
2011-03-16 12:48:55 51°32.949 2°55.056 157.3 4.9 149 22.3
2011-03-16 12:49:55 51°32.89 2°55.146 138.1 5 129 22.8
2011-03-16 12:50:55 51°32.852 2°55.262 122.7 4.5 113 24.2
2011-03-16 12:51:54 51°32.833 2°55.355 119.8 3 106 27.1
2011-03-16 12:52:54 51°32.827 2°55.42 114.5 2.2 95 27.6
2011-03-16 12:53:54 51°32.815 2°55.473 147.8 2.1 138 27.4
2011-03-16 12:54:55 51°32.787 2°55.479 207.4 1.7 212 27.7
2011-03-16 12:55:55 51°32.777 2°55.441 241.9 1.7 256 28.1
2011-03-16 12:56:55 51°32.774 2°55.395 249.8 1.8 268 25.6
2011-03-16 12:57:55 51°32.775 2°55.347 257.4 1.8 272 20.6
2011-03-16 12:58:55 51°32.782 2°55.304 268.8 1.5 293 24.2
2011-03-16 12:59:54 51°32.792 2°55.274 279.1 1.2 304 24.9
2011-03-16 13:00:54 51°32.805 2°55.253 294.9 1 313 25.3
2011-03-16 13:01:55 51°32.816 2°55.242 304.1 0.6 358 25.2
2011-03-16 13:02:55 51°32.819 2°55.244 301 0.3 83 24.5
2011-03-16 13:03:55 51°32.82 2°55.256 285.6 0.6 70 24.4
2011-03-16 13:04:54 51°32.822 2°55.27 273.6 0.6 70 22.6
2011-03-16 13:05:54 51°32.826 2°55.288 263.8 0.7 60 22.3
2011-03-16 13:06:55 51°32.831 2°55.303 255.2 0.3 48 24
2011-03-16 13:07:55 51°32.834 2°55.308 258.8 0.2 38 25.3
2011-03-16 13:08:55 51°32.837 2°55.306 268.6 0.4 331 25.1
2011-03-16 13:09:55 51°32.841 2°55.298 282.3 0.4 308 24.8
2011-03-16 13:10:55 51°32.848 2°55.29 293.1 0.4 305 25.3
2011-03-16 13:11:54 51°32.854 2°55.283 299.9 0.4 312 25.8
2011-03-16 13:12:54 51°32.86 2°55.276 303.5 0.4 328 25.9
2011-03-16 13:13:55 51°32.864 2°55.269 303 0.4 294 26
2011-03-16 13:14:55 51°32.87 2°55.263 302.9 0.3 337 25.7
2011-03-16 13:15:54 51°32.873 2°55.256 301.1 0.3 328 25.9
2011-03-16 13:16:54 51°32.876 2°55.249 298.2 0.4 304 25.3
2011-03-16 13:17:55 51°32.882 2°55.235 298.8 1.1 305 25.7
2011-03-16 13:18:55 51°32.897 2°55.205 304 1.9 315 25.7
2011-03-16 13:19:55 51°32.922 2°55.166 315.5 2.2 320 25.5
2011-03-16 13:20:54 51°32.946 2°55.138 321.5 1.5 329 25.2
2011-03-16 13:21:54 51°32.961 2°55.121 322.5 0.8 328 26.2
2011-03-16 13:22:55 51°32.969 2°55.109 319.7 0.6 306 25.7
2011-03-16 13:23:54 51°32.972 2°55.1 311.6 0.5 266 25.3
2011-03-16 13:24:55 51°32.972 2°55.095 297.2 0.2 254 24.9
2011-03-16 13:25:55 51°32.971 2°55.093 288.2 0.4 204 25.7
2011-03-16 13:26:55 51°32.971 2°55.092 281.1 0.2 189 25.7
2011-03-16 13:27:54 51°32.972 2°55.072 266.5 1.5 277 24.7
2011-03-16 13:28:55 51°32.965 2°55.015 236.7 2.5 239 24.6
2011-03-16 13:29:54 51°32.926 2°54.968 210.5 4.6 211 25.3
2011-03-16 13:30:55 51°32.833 2°54.891 197.8 7.3 197 26.3
2011-03-16 13:31:54 51°32.704 2°54.856 188.4 8.7 189 22.8
2011-03-16 13:32:54 51°32.546 2°54.813 190.6 10.4 192 22.4
2011-03-16 13:33:55 51°32.369 2°54.763 191.2 10.5 192 24.2
2011-03-16 13:34:55 51°32.193 2°54.712 190.8 10.7 192 21.5
2011-03-16 13:35:55 51°32.017 2°54.673 187.4 10.7 186 20.1
2011-03-16 13:36:55 51°31.842 2°54.635 188 10.6 188 21.5
2011-03-16 13:37:55 51°31.667 2°54.588 188.8 10.6 189 20.9
2011-03-16 13:38:55 51°31.49 2°54.547 187.6 10.8 188 20.4
2011-03-16 13:39:54 51°31.317 2°54.513 188.1 11 188 20.3
2011-03-16 13:40:55 51°31.139 2°54.469 187.7 10.7 189 19.2
2011-03-16 13:41:54 51°30.966 2°54.435 185 10.9 185 19.5
2011-03-16 13:42:55 51°30.786 2°54.405 185.1 10.6 187 20.2
2011-03-16 13:43:54 51°30.609 2°54.37 187.1 11.1 191 31.9
2011-03-16 13:44:55 51°30.423 2°54.341 185.8 10.9 186 35.6
2011-03-16 13:45:54 51°30.243 2°54.314 186 11.5 187 33.2
2011-03-16 13:46:55 51°30.051 2°54.282 185.9 11.3 185 33.2
2011-03-16 13:47:54 51°29.864 2°54.252 186.1 11.6 185 32.5
2011-03-16 13:48:54 51°29.676 2°54.219 186.5 11.1 185 30.6
2011-03-16 13:49:55 51°29.482 2°54.188 186.1 11.8 187 29.4
2011-03-16 13:50:55 51°29.295 2°54.152 184.7 11.3 187 28.3
2011-03-16 13:51:55 51°29.106 2°54.123 186.7 11.2 183 26.9
2011-03-16 13:52:54 51°28.921 2°54.089 185.9 11.5 188 26.2
2011-03-16 13:53:54 51°28.732 2°54.047 187.7 11.5 188 25.2
2011-03-16 13:54:54 51°28.543 2°54.006 187.1 11.5 188 24.2
2011-03-16 13:55:55 51°28.35 2°53.971 186 11.7 187 22.7
2011-03-16 13:56:54 51°28.163 2°53.938 185.8 11.4 186 21.7
2011-03-16 13:57:55 51°27.968 2°53.896 186.6 11.6 187 21.4
2011-03-16 13:58:55 51°27.777 2°53.865 183.4 11.6 186 20.9
2011-03-16 13:59:55 51°27.585 2°53.832 185.9 11.7 189 23.5
2011-03-16 14:00:55 51°27.392 2°53.791 186.6 11.5 184 24.2
2011-03-16 14:01:55 51°27.198 2°53.751 186.9 11.7 188 24
2011-03-16 14:02:54 51°27.009 2°53.717 186.4 11.8 186 26
2011-03-16 14:03:55 51°26.812 2°53.681 187.7 11.8 187 28.2
2011-03-16 14:04:54 51°26.621 2°53.646 186.6 11.7 189 32.1
2011-03-16 14:05:55 51°26.424 2°53.607 186.1 11.9 185 33.1
2011-03-16 14:06:54 51°26.233 2°53.572 184 11.7 184 31.9
2011-03-16 14:07:54 51°26.038 2°53.552 181.7 11.7 186 30.8
2011-03-16 14:08:54 51°25.843 2°53.53 184.4 12.3 183 28.4
2011-03-16 14:09:55 51°25.643 2°53.506 182.6 11.8 186 25.5
2011-03-16 14:10:55 51°25.445 2°53.48 182.9 12.1 186 23.5
2011-03-16 14:11:55 51°25.248 2°53.455 181.5 12 182 22.3
2011-03-16 14:12:55 51°25.048 2°53.424 182.9 12.4 186 21.1
2011-03-16 14:13:55 51°24.854 2°53.396 183.2 11.2 183 19.5
2011-03-16 14:14:55 51°24.673 2°53.366 183.3 10.4 185 16.8
2011-03-16 14:15:55 51°24.531 2°53.339 183.7 6.4 186 19.7
2011-03-16 14:16:54 51°24.437 2°53.323 181.7 5.7 185 18.1
2011-03-16 14:17:55 51°24.311 2°53.301 183.7 8.6 188 17.7
2011-03-16 14:18:55 51°24.165 2°53.272 183.1 9.4 189 18.6
2011-03-16 14:19:55 51°23.986 2°53.239 183.4 11.8 186 20
2011-03-16 14:20:54 51°23.795 2°53.202 182.2 11.9 186 21.2
2011-03-16 14:21:54 51°23.586 2°53.162 183 13.8 188 21.1
2011-03-16 14:22:55 51°23.361 2°53.128 181.6 12.9 187 20
2011-03-16 14:23:55 51°23.144 2°53.088 183 13.1 185 21.4
2011-03-16 14:24:55 51°22.928 2°53.045 182.1 13.1 185 22.7
2011-03-16 14:25:54 51°22.717 2°53.009 182.3 13 187 22.4
2011-03-16 14:26:55 51°22.497 2°52.969 185.7 13.3 188 23
2011-03-16 14:27:54 51°22.288 2°52.886 191 13.3 193 23.8
2011-03-16 14:28:54 51°22.07 2°52.8 189.7 13.4 194 23.2
2011-03-16 14:29:55 51°21.852 2°52.715 191.2 13.1 195 21.5
2011-03-16 14:30:55 51°21.638 2°52.638 188.1 12.7 188 19.3
2011-03-16 14:31:55 51°21.432 2°52.56 190 12.3 191 17.1
2011-03-16 14:32:55 51°21.233 2°52.481 190.5 12.3 194 16.5
2011-03-16 14:33:54 51°21.038 2°52.405 189.5 12.5 193 15.9
2011-03-16 14:34:54 51°20.837 2°52.354 183.4 12.2 189 14.2
2011-03-16 14:35:55 51°20.633 2°52.303 183.2 12.1 192 13.9
2011-03-16 14:36:55 51°20.43 2°52.251 183.6 12.1 191 14.3
2011-03-16 14:37:55 51°20.229 2°52.201 182.4 12.2 188 15
2011-03-16 14:38:54 51°20.033 2°52.13 189.9 12.2 198 15.5
2011-03-16 14:39:55 51°19.833 2°52.047 190.2 12.4 195 15.9
2011-03-16 14:40:55 51°19.638 2°51.965 189.2 12.1 194 15.4
2011-03-16 14:41:55 51°19.439 2°51.902 181 11.9 184 15.2
2011-03-16 14:42:54 51°19.24 2°51.877 178.5 12.1 185 15
2011-03-16 14:43:54 51°19.038 2°51.865 172.6 11.9 183 14.2
2011-03-16 14:44:54 51°18.837 2°51.868 173.4 12 180 13.4
2011-03-16 14:45:55 51°18.634 2°51.868 175.3 12 181 12.6
2011-03-16 14:46:54 51°18.437 2°51.873 174.1 11.9 179 11.5
2011-03-16 14:47:55 51°18.236 2°51.893 163.1 11.8 168 10.7
2011-03-16 14:48:55 51°18.042 2°51.951 162.1 12.1 168 10.2
2011-03-16 14:49:54 51°17.851 2°52.009 163.3 11.7 169 10.3
2011-03-16 14:50:55 51°17.653 2°52.073 161.9 12.2 165 10.6
2011-03-16 14:51:54 51°17.459 2°52.129 165 12.2 169 10.9
2011-03-16 14:52:54 51°17.273 2°52.233 148.2 11.4 159 10.7
2011-03-16 14:53:55 51°17.096 2°52.379 146.6 11.7 152 9.5
2011-03-16 14:54:55 51°16.926 2°52.524 146.1 11.7 152 9.5
2011-03-16 14:55:55 51°16.753 2°52.664 147.8 11.6 152 9.4
2011-03-16 14:56:55 51°16.579 2°52.801 148 11.6 154 11.1
2011-03-16 14:57:55 51°16.404 2°52.936 149.7 11.6 159 11.4
2011-03-16 14:58:55 51°16.225 2°53.06 148.4 11.8 153 11.6
2011-03-16 14:59:54 51°16.056 2°53.198 145.9 11.6 151 11.2
2011-03-16 15:00:55 51°15.883 2°53.343 143.1 11.5 150 11.2
2011-03-16 15:01:55 51°15.718 2°53.496 143.8 11.4 151 10.8
2011-03-16 15:02:55 51°15.557 2°53.659 139.1 11.5 148 10.2
2011-03-16 15:03:54 51°15.401 2°53.83 135.5 11.5 143 9.4
2011-03-16 15:04:55 51°15.248 2°54.027 133.7 11.6 140 8.6
2011-03-16 15:05:54 51°15.102 2°54.217 133.3 11.4 140 8.2
2011-03-16 15:06:55 51°14.955 2°54.422 134.7 11.6 142 8.6
2011-03-16 15:07:54 51°14.802 2°54.611 135 11.5 136 10.4
2011-03-16 15:08:55 51°14.647 2°54.804 138.1 11.8 145 10.7
2011-03-16 15:09:55 51°14.493 2°54.988 133.2 11.5 137 10
2011-03-16 15:10:55 51°14.347 2°55.19 141.9 11.8 143 9.7
2011-03-16 15:11:55 51°14.193 2°55.355 149.6 10.5 150 9.9
2011-03-16 15:12:55 51°14.042 2°55.473 154.9 9.7 155 10
2011-03-16 15:13:55 51°13.906 2°55.571 156 8.4 155 10.3
2011-03-16 15:14:55 51°13.797 2°55.663 146.4 6.3 145 10.4
2011-03-16 15:15:56 51°13.732 2°55.764 131 4.8 131 10.2
2011-03-16 15:16:55 51°13.691 2°55.85 122.7 3.7 121 8.3
2011-03-16 15:17:56 51°13.668 2°55.932 109.7 2.8 108 -999
2011-03-16 15:18:55 51°13.662 2°55.96 122.5 0.3 140 6.9